createdAt,value
2017-12-11T00:01:47.435Z,3.17
2017-12-11T00:04:13.376Z,3.10
2017-12-11T00:06:39.294Z,3.90
2017-12-11T00:09:05.216Z,3.80
2017-12-11T00:11:31.144Z,2.97
2017-12-11T00:13:57.096Z,3.67
2017-12-11T00:16:23.003Z,3.20
2017-12-11T00:18:48.966Z,3.00
2017-12-11T00:21:14.900Z,3.10
2017-12-11T00:23:40.842Z,2.27
2017-12-11T00:26:06.811Z,2.67
2017-12-11T00:28:32.770Z,2.90
2017-12-11T00:30:58.727Z,2.80
2017-12-11T00:33:24.630Z,2.60
2017-12-11T00:35:50.551Z,3.00
2017-12-11T00:38:16.466Z,2.77
2017-12-11T00:40:42.394Z,2.70
2017-12-11T00:43:08.317Z,3.23
2017-12-11T00:45:34.281Z,2.93
2017-12-11T00:48:00.236Z,3.10
2017-12-11T00:50:26.211Z,2.93
2017-12-11T00:52:52.155Z,2.77
2017-12-11T00:55:18.074Z,2.73
2017-12-11T00:57:44.037Z,2.87
2017-12-11T01:00:09.992Z,2.23
2017-12-11T01:02:35.923Z,2.90
2017-12-11T01:05:01.896Z,3.03
2017-12-11T01:07:27.882Z,2.90
2017-12-11T01:09:53.898Z,3.03
2017-12-11T01:12:19.826Z,3.80
2017-12-11T01:14:45.859Z,3.00
2017-12-11T01:17:12.551Z,2.97
2017-12-11T01:19:38.474Z,2.10
2017-12-11T01:22:04.405Z,2.67
2017-12-11T01:24:30.330Z,3.70
2017-12-11T01:26:56.319Z,2.20
2017-12-11T01:29:22.256Z,2.57
2017-12-11T01:31:48.216Z,2.57
2017-12-11T01:34:14.146Z,2.23
2017-12-11T01:36:40.096Z,2.50
2017-12-11T01:39:05.999Z,2.83
2017-12-11T01:41:31.980Z,2.23
2017-12-11T01:43:57.956Z,2.20
2017-12-11T01:46:23.894Z,2.90
2017-12-11T01:48:49.889Z,2.93
2017-12-11T01:51:15.815Z,2.20
2017-12-11T01:53:41.727Z,2.37
2017-12-11T01:56:07.663Z,1.93
2017-12-11T01:58:33.611Z,2.17
2017-12-11T02:00:59.528Z,2.47
2017-12-11T02:03:25.435Z,1.93
2017-12-11T02:05:51.347Z,1.90
2017-12-11T02:08:17.291Z,2.20
2017-12-11T02:10:43.347Z,2.13
2017-12-11T02:13:10.052Z,2.10
2017-12-11T02:15:36.016Z,2.00
2017-12-11T02:18:02.845Z,2.07
2017-12-11T02:20:28.814Z,2.23
2017-12-11T02:22:55.496Z,2.27
2017-12-11T02:25:21.592Z,2.20
2017-12-11T02:27:47.533Z,2.70
2017-12-11T02:30:13.489Z,2.43
2017-12-11T02:32:40.130Z,2.17
2017-12-11T02:35:06.068Z,2.20
2017-12-11T02:37:31.962Z,1.60
2017-12-11T02:39:57.887Z,10.70
2017-12-11T02:42:24.569Z,4.03
2017-12-11T02:44:50.495Z,6.00
2017-12-11T02:47:16.520Z,2.60
2017-12-11T02:49:42.443Z,2.10
2017-12-11T02:52:08.404Z,2.10
2017-12-11T02:54:34.331Z,2.17
2017-12-11T02:57:01.051Z,2.00
2017-12-11T02:59:26.978Z,2.40
2017-12-11T03:01:53.722Z,2.20
2017-12-11T03:04:19.675Z,2.53
2017-12-11T03:06:45.603Z,2.20
2017-12-11T03:09:11.554Z,2.47
2017-12-11T03:11:37.501Z,2.53
2017-12-11T03:14:04.141Z,2.27
2017-12-11T03:16:30.063Z,2.30
2017-12-11T03:18:56.713Z,2.53
2017-12-11T03:21:22.644Z,2.60
2017-12-11T03:23:48.552Z,2.47
2017-12-11T03:26:14.512Z,2.90
2017-12-11T03:28:40.427Z,2.30
2017-12-11T03:31:06.647Z,2.43
2017-12-11T03:33:32.524Z,3.23
2017-12-11T03:35:58.575Z,2.70
2017-12-11T03:38:24.507Z,2.63
2017-12-11T03:40:50.471Z,3.37
2017-12-11T03:43:17.050Z,9.53
2017-12-11T03:45:43.023Z,31.23
2017-12-11T03:48:08.986Z,15.37
2017-12-11T03:50:34.886Z,3.37
2017-12-11T03:53:00.830Z,3.30
2017-12-11T03:55:27.621Z,2.53
2017-12-11T03:57:53.558Z,2.73
2017-12-11T04:00:19.850Z,3.63
2017-12-11T04:02:45.797Z,3.30
2017-12-11T04:05:11.724Z,3.20
2017-12-11T04:07:38.664Z,3.67
2017-12-11T04:10:04.609Z,3.03
2017-12-11T04:12:31.279Z,3.10
2017-12-11T04:14:57.255Z,3.63
2017-12-11T04:17:23.162Z,6.10
2017-12-11T04:19:49.090Z,4.50
2017-12-11T04:22:15.013Z,3.60
2017-12-11T04:24:40.993Z,3.77
2017-12-11T04:27:06.881Z,4.17
2017-12-11T04:29:32.876Z,4.17
2017-12-11T04:31:59.516Z,4.10
2017-12-11T04:34:25.439Z,3.30
2017-12-11T04:36:51.556Z,4.60
2017-12-11T04:39:17.480Z,3.90
2017-12-11T04:41:43.443Z,15.20
2017-12-11T04:44:09.370Z,5.70
2017-12-11T04:46:35.292Z,7.30
2017-12-11T04:49:01.218Z,8.00
2017-12-11T04:51:27.139Z,6.77
2017-12-11T04:53:53.064Z,4.20
2017-12-11T04:56:19.027Z,4.33
2017-12-11T04:58:45.717Z,4.50
2017-12-11T05:01:11.691Z,4.17
2017-12-11T05:03:38.428Z,4.63
2017-12-11T05:06:05.123Z,4.80
2017-12-11T05:08:31.073Z,4.73
2017-12-11T05:10:56.967Z,4.30
2017-12-11T05:13:22.909Z,6.97
2017-12-11T05:15:48.899Z,7.17
2017-12-11T05:18:14.821Z,6.20
2017-12-11T05:20:40.765Z,6.03
2017-12-11T05:23:06.695Z,5.77
2017-12-11T05:25:33.365Z,5.90
2017-12-11T05:27:59.333Z,4.90
2017-12-11T05:30:25.325Z,5.80
2017-12-11T05:32:51.350Z,5.53
2017-12-11T05:35:17.349Z,5.27
2017-12-11T05:37:44.052Z,5.30
2017-12-11T05:40:10.199Z,5.60
2017-12-11T05:42:36.203Z,5.83
2017-12-11T05:45:02.171Z,5.07
2017-12-11T05:47:28.875Z,5.60
2017-12-11T05:49:56.383Z,5.50
2017-12-11T05:52:23.207Z,6.13
2017-12-11T05:54:49.126Z,6.63
2017-12-11T05:57:15.034Z,7.00
2017-12-11T05:59:41.273Z,6.30
2017-12-11T06:02:07.302Z,6.20
2017-12-11T06:04:33.301Z,6.10
2017-12-11T06:07:00.043Z,7.23
2017-12-11T06:09:26.045Z,6.80
2017-12-11T06:11:52.093Z,7.50
2017-12-11T06:14:19.289Z,8.07
2017-12-11T06:16:49.423Z,6.87
2017-12-11T06:19:15.375Z,9.27
2017-12-11T06:21:42.088Z,9.10
2017-12-11T06:26:52.787Z,10.97
2017-12-11T06:29:22.102Z,9.97
2017-12-11T06:31:48.859Z,12.10
2017-12-11T06:34:15.050Z,12.87
2017-12-11T06:36:41.182Z,16.50
2017-12-11T06:39:07.846Z,15.60
2017-12-11T06:41:33.787Z,9.53
2017-12-11T06:43:59.711Z,11.67
2017-12-11T06:46:26.561Z,10.10
2017-12-11T06:48:53.281Z,8.93
2017-12-11T06:51:19.278Z,8.57
2017-12-11T06:53:45.251Z,9.50
2017-12-11T06:56:12.804Z,9.37
2017-12-11T06:58:38.787Z,10.20
2017-12-11T07:01:06.070Z,9.37
2017-12-11T07:03:31.995Z,9.03
2017-12-11T07:05:57.938Z,8.67
2017-12-11T07:08:23.878Z,9.00
2017-12-11T07:10:50.033Z,9.90
2017-12-11T07:13:16.057Z,10.70
2017-12-11T07:15:41.998Z,10.77
2017-12-11T07:18:08.718Z,10.77
2017-12-11T07:20:34.859Z,10.70
2017-12-11T07:23:01.496Z,10.53
2017-12-11T07:25:27.427Z,11.10
2017-12-11T07:27:53.416Z,11.33
2017-12-11T07:30:19.370Z,10.13
2017-12-11T07:32:45.292Z,9.73
2017-12-11T07:35:11.540Z,9.70
2017-12-11T07:37:37.494Z,9.40
2017-12-11T07:40:04.459Z,7.47
2017-12-11T07:42:30.425Z,6.40
2017-12-11T07:44:56.399Z,6.60
2017-12-11T07:47:22.335Z,4.57
2017-12-11T07:49:48.446Z,4.07
2017-12-11T07:52:14.360Z,5.53
2017-12-11T07:54:40.307Z,5.10
2017-12-11T07:57:06.314Z,4.90
2017-12-11T07:59:32.244Z,5.60
2017-12-11T08:01:58.195Z,5.43
2017-12-11T08:04:24.219Z,5.50
2017-12-11T08:06:50.266Z,5.43
2017-12-11T08:09:16.336Z,5.53
2017-12-11T08:11:42.318Z,5.67
2017-12-11T08:14:09.195Z,6.40
2017-12-11T08:16:35.124Z,5.57
2017-12-11T08:19:01.123Z,6.27
2017-12-11T08:21:27.092Z,6.03
2017-12-11T08:23:53.148Z,5.80
2017-12-11T08:26:19.166Z,5.50
2017-12-11T08:28:45.135Z,5.80
2017-12-11T08:31:11.850Z,6.30
2017-12-11T08:33:38.195Z,6.37
2017-12-11T08:36:04.351Z,7.13
2017-12-11T08:38:30.280Z,7.80
2017-12-11T08:40:56.261Z,10.27
2017-12-11T08:43:22.205Z,8.20
2017-12-11T08:45:48.307Z,8.17
2017-12-11T08:48:14.264Z,7.13
2017-12-11T08:50:40.962Z,7.90
2017-12-11T08:53:07.091Z,8.40
2017-12-11T08:55:33.061Z,8.07
2017-12-11T08:57:59.079Z,9.00
2017-12-11T09:00:25.104Z,8.70
2017-12-11T09:02:51.089Z,8.10
2017-12-11T09:05:17.804Z,8.00
2017-12-11T09:07:43.736Z,7.10
2017-12-11T09:10:09.671Z,7.30
2017-12-11T09:12:35.591Z,7.70
2017-12-11T09:15:01.545Z,6.50
2017-12-11T09:17:27.587Z,7.07
2017-12-11T09:19:54.331Z,7.13
2017-12-11T09:22:20.250Z,6.43
2017-12-11T09:24:46.146Z,6.23
2017-12-11T09:27:12.100Z,6.73
2017-12-11T09:29:38.779Z,7.87
2017-12-11T09:32:04.757Z,10.87
2017-12-11T09:34:30.691Z,6.10
2017-12-11T09:36:56.693Z,7.30
2017-12-11T09:39:22.630Z,6.07
2017-12-11T09:41:48.621Z,5.70
2017-12-11T09:44:14.564Z,8.20
2017-12-11T09:46:40.531Z,5.70
2017-12-11T09:49:06.495Z,6.60
2017-12-11T09:51:33.231Z,6.13
2017-12-11T09:53:59.938Z,7.00
2017-12-11T09:56:25.939Z,8.10
2017-12-11T09:58:51.855Z,7.70
2017-12-11T10:01:18.239Z,6.30
2017-12-11T10:03:44.249Z,7.23
2017-12-11T10:06:10.187Z,5.83
2017-12-11T10:08:36.161Z,5.37
2017-12-11T10:11:02.091Z,5.90
2017-12-11T10:13:28.055Z,4.23
2017-12-11T10:15:54.746Z,5.20
2017-12-11T10:18:20.719Z,5.20
2017-12-11T10:20:46.621Z,5.03
2017-12-11T10:23:12.518Z,5.00
2017-12-11T10:25:38.437Z,6.13
2017-12-11T10:28:04.359Z,5.50
2017-12-11T10:30:30.386Z,4.80
2017-12-11T10:32:56.351Z,5.73
2017-12-11T10:35:23.023Z,5.23
2017-12-11T10:37:48.939Z,5.33
2017-12-11T10:40:14.992Z,5.50
2017-12-11T10:42:40.943Z,10.80
2017-12-11T10:45:06.862Z,4.30
2017-12-11T10:47:32.862Z,4.63
2017-12-11T10:49:58.797Z,5.00
2017-12-11T10:52:24.763Z,4.57
2017-12-11T10:54:50.704Z,3.70
2017-12-11T10:57:16.714Z,3.83
2017-12-11T10:59:42.705Z,4.30
2017-12-11T11:02:09.469Z,10.97
2017-12-11T11:04:36.420Z,4.00
2017-12-11T11:07:02.454Z,4.20
2017-12-11T11:09:28.372Z,3.83
2017-12-11T11:11:54.299Z,4.27
2017-12-11T11:14:20.242Z,4.70
2017-12-11T11:16:46.180Z,4.33
2017-12-11T11:19:12.251Z,3.50
2017-12-11T11:21:38.769Z,5.50
2017-12-11T11:24:04.751Z,4.07
2017-12-11T11:26:30.671Z,4.20
2017-12-11T11:28:56.734Z,3.53
2017-12-11T11:31:22.710Z,4.47
2017-12-11T11:33:48.663Z,4.70
2017-12-11T11:36:15.376Z,14.00
2017-12-11T11:38:41.366Z,13.60
2017-12-11T11:41:07.289Z,11.60
2017-12-11T11:43:33.211Z,7.43
2017-12-11T11:45:59.180Z,6.20
2017-12-11T11:48:25.930Z,3.77
2017-12-11T11:50:51.852Z,4.67
2017-12-11T11:53:17.809Z,3.53
2017-12-11T11:55:43.766Z,3.07
2017-12-11T11:58:09.692Z,3.40
2017-12-11T12:00:36.387Z,3.83
2017-12-11T12:03:02.322Z,4.30
2017-12-11T12:05:28.281Z,5.97
2017-12-11T12:07:54.305Z,3.00
2017-12-11T12:10:20.954Z,3.27
2017-12-11T12:12:46.900Z,2.43
2017-12-11T12:15:12.865Z,2.90
2017-12-11T12:17:38.796Z,2.50
2017-12-11T12:20:04.943Z,3.23
2017-12-11T12:22:30.922Z,2.10
2017-12-11T12:24:56.892Z,2.00
2017-12-11T12:27:22.847Z,2.20
2017-12-11T12:29:48.807Z,2.20
2017-12-11T12:32:15.514Z,2.27
2017-12-11T12:34:41.474Z,2.10
2017-12-11T12:37:08.211Z,2.00
2017-12-11T12:39:34.899Z,1.93
2017-12-11T12:42:01.625Z,2.43
2017-12-11T12:44:27.609Z,3.03
2017-12-11T12:46:53.543Z,2.50
2017-12-11T12:49:19.450Z,2.67
2017-12-11T12:51:45.402Z,3.07
2017-12-11T12:54:11.370Z,2.37
2017-12-11T12:56:37.391Z,4.07
2017-12-11T12:59:03.308Z,18.80
2017-12-11T13:01:29.239Z,3.77
2017-12-11T13:03:55.159Z,4.00
2017-12-11T13:06:21.169Z,3.73
2017-12-11T13:08:47.123Z,2.83
2017-12-11T13:11:13.790Z,2.90
2017-12-11T13:13:39.743Z,2.60
2017-12-11T13:16:05.700Z,2.10
2017-12-11T13:18:32.360Z,2.00
2017-12-11T13:20:58.256Z,1.90
2017-12-11T13:23:24.916Z,1.97
2017-12-11T13:25:50.818Z,1.70
2017-12-11T13:28:17.964Z,1.70
2017-12-11T13:30:44.615Z,1.83
2017-12-11T13:33:10.557Z,2.10
2017-12-11T13:35:36.477Z,2.20
2017-12-11T13:38:02.480Z,2.23
2017-12-11T13:40:28.492Z,2.07
2017-12-11T13:42:55.231Z,2.40
2017-12-11T13:45:21.424Z,1.97
2017-12-11T13:47:47.398Z,2.17
2017-12-11T13:50:13.299Z,2.90
2017-12-11T13:52:39.264Z,3.00
2017-12-11T13:55:05.190Z,2.93
2017-12-11T13:57:31.860Z,2.80
2017-12-11T13:59:57.804Z,2.47
2017-12-11T14:02:24.560Z,2.87
2017-12-11T14:04:50.512Z,3.30
2017-12-11T14:07:16.514Z,4.70
2017-12-11T14:09:42.617Z,3.23
2017-12-11T14:12:08.610Z,3.40
2017-12-11T14:14:34.542Z,4.00
2017-12-11T14:17:00.489Z,5.00
2017-12-11T14:19:26.548Z,3.30
2017-12-11T14:21:52.469Z,3.00
2017-12-11T14:24:18.394Z,3.30
2017-12-11T14:26:44.315Z,2.90
2017-12-11T14:29:10.336Z,2.33
2017-12-11T14:31:36.270Z,2.80
2017-12-11T14:34:02.237Z,2.47
2017-12-11T14:36:28.167Z,2.97
2017-12-11T14:38:54.087Z,3.33
2017-12-11T14:41:20.052Z,3.37
2017-12-11T14:43:45.967Z,4.00
2017-12-11T14:46:11.905Z,3.90
2017-12-11T14:48:38.830Z,3.50
2017-12-11T14:51:04.753Z,3.57
2017-12-11T14:53:30.739Z,4.20
2017-12-11T14:55:56.696Z,3.77
2017-12-11T14:58:22.711Z,3.53
2017-12-11T15:00:48.658Z,3.03
2017-12-11T15:03:14.599Z,3.20
2017-12-11T15:05:40.798Z,3.30
2017-12-11T15:08:06.810Z,3.10
2017-12-11T15:10:33.466Z,2.70
2017-12-11T15:12:59.418Z,2.63
2017-12-11T15:15:25.388Z,2.37
2017-12-11T15:17:51.418Z,2.60
2017-12-11T15:20:17.394Z,2.77
2017-12-11T15:22:43.355Z,2.10
2017-12-11T15:25:09.275Z,2.73
2017-12-11T15:27:35.213Z,8.37
2017-12-11T15:30:01.174Z,4.50
2017-12-11T15:32:27.223Z,4.67
2017-12-11T15:34:53.198Z,11.90
2017-12-11T15:37:19.299Z,3.80
2017-12-11T15:39:46.162Z,2.90
2017-12-11T15:42:12.151Z,4.90
2017-12-11T15:44:38.088Z,2.03
2017-12-11T15:47:04.122Z,1.80
2017-12-11T15:49:31.538Z,2.00
2017-12-11T15:51:57.537Z,2.07
2017-12-11T15:54:23.546Z,2.30
2017-12-11T15:56:49.570Z,2.03
2017-12-11T15:59:15.517Z,2.17
2017-12-11T16:01:41.490Z,2.30
2017-12-11T16:04:07.483Z,2.30
2017-12-11T16:06:33.455Z,2.40
2017-12-11T16:09:00.872Z,1.90
2017-12-11T16:11:27.605Z,2.07
2017-12-11T16:13:53.567Z,2.20
2017-12-11T16:16:19.487Z,3.00
2017-12-11T16:18:46.602Z,2.73
2017-12-11T16:21:12.527Z,2.30
2017-12-11T16:23:40.553Z,2.10
2017-12-11T16:26:06.574Z,2.70
2017-12-11T16:28:33.229Z,2.80
2017-12-11T16:31:01.175Z,2.40
2017-12-11T16:33:27.102Z,1.73
2017-12-11T16:35:53.052Z,8.90
2017-12-11T16:38:19.085Z,3.70
2017-12-11T16:40:46.120Z,2.40
2017-12-11T16:43:12.191Z,2.60
2017-12-11T16:45:38.136Z,2.10
2017-12-11T16:48:04.071Z,1.47
2017-12-11T16:50:31.608Z,1.70
2017-12-11T16:52:57.585Z,1.80
2017-12-11T16:55:24.510Z,1.83
2017-12-11T16:57:50.469Z,2.00
2017-12-11T17:00:16.398Z,2.37
2017-12-11T17:02:42.295Z,1.70
2017-12-11T17:05:08.508Z,2.10
2017-12-11T17:07:34.492Z,2.10
2017-12-11T17:10:00.432Z,1.90
2017-12-11T17:12:26.607Z,1.80
2017-12-11T17:14:52.567Z,2.10
2017-12-11T17:17:18.612Z,2.00
2017-12-11T17:19:44.635Z,2.20
2017-12-11T17:22:12.187Z,1.70
2017-12-11T17:24:38.236Z,2.50
2017-12-11T17:27:04.264Z,1.87
2017-12-11T17:29:30.172Z,1.80
2017-12-11T17:31:56.825Z,1.70
2017-12-11T17:34:23.484Z,1.60
2017-12-11T17:36:50.535Z,5.07
2017-12-11T17:39:16.553Z,5.50
2017-12-11T17:41:42.466Z,1.87
2017-12-11T17:44:08.384Z,1.60
2017-12-11T17:46:34.282Z,1.60
2017-12-11T17:49:01.038Z,1.93
2017-12-11T17:51:26.956Z,1.70
2017-12-11T17:53:52.896Z,1.73
2017-12-11T17:56:18.816Z,1.33
2017-12-11T17:58:46.538Z,1.50
2017-12-11T18:01:13.256Z,1.40
2017-12-11T18:03:39.207Z,2.20
2017-12-11T18:06:06.189Z,1.90
2017-12-11T18:08:32.087Z,1.50
2017-12-11T18:10:58.040Z,1.77
2017-12-11T18:13:23.958Z,2.20
2017-12-11T18:15:49.856Z,1.60
2017-12-11T18:18:15.859Z,1.40
2017-12-11T18:20:42.695Z,1.40
2017-12-11T18:23:08.668Z,1.50
2017-12-11T18:25:34.622Z,3.33
2017-12-11T18:28:00.602Z,1.90
2017-12-11T18:30:26.597Z,1.73
2017-12-11T18:32:52.529Z,1.87
2017-12-11T18:35:19.184Z,1.63
2017-12-11T18:37:45.225Z,1.90
2017-12-11T18:42:43.627Z,1.50
2017-12-11T18:45:11.287Z,1.70
2017-12-11T18:47:37.517Z,1.60
2017-12-11T18:50:03.509Z,1.50
2017-12-11T18:52:29.449Z,1.60
2017-12-11T18:54:56.135Z,1.80
2017-12-11T18:57:22.070Z,1.83
2017-12-11T18:59:48.043Z,1.80
2017-12-11T19:02:13.959Z,2.23
2017-12-11T19:04:39.908Z,1.60
2017-12-11T19:07:06.616Z,1.90
2017-12-11T19:09:32.611Z,1.50
2017-12-11T19:11:58.535Z,1.30
2017-12-11T19:14:27.690Z,1.70
2017-12-11T19:16:53.671Z,1.50
2017-12-11T19:19:19.614Z,1.50
2017-12-11T19:21:45.590Z,1.90
2017-12-11T19:24:11.545Z,2.87
2017-12-11T19:26:37.496Z,2.90
2017-12-11T19:29:03.414Z,2.50
2017-12-11T19:31:29.324Z,3.57
2017-12-11T19:33:55.249Z,4.10
2017-12-11T19:36:21.171Z,2.10
2017-12-11T19:38:47.870Z,1.50
2017-12-11T19:41:13.909Z,1.40
2017-12-11T19:43:39.843Z,1.80
2017-12-11T19:46:05.917Z,1.90
2017-12-11T19:48:32.091Z,1.50
2017-12-11T19:50:58.056Z,1.90
2017-12-11T19:53:24.006Z,1.50
2017-12-11T19:55:49.936Z,2.07
2017-12-11T19:58:15.995Z,1.80
2017-12-11T20:00:41.936Z,1.87
2017-12-11T20:03:07.856Z,2.00
2017-12-11T20:05:33.835Z,1.70
2017-12-11T20:07:59.860Z,1.63
2017-12-11T20:10:25.813Z,1.80
2017-12-11T20:12:51.940Z,1.90
2017-12-11T20:15:17.859Z,1.80
2017-12-11T20:17:44.366Z,1.60
2017-12-11T20:20:11.200Z,1.70
2017-12-11T20:22:37.136Z,1.30
2017-12-11T20:25:03.057Z,1.80
2017-12-11T20:27:28.995Z,2.20
2017-12-11T20:29:55.810Z,1.80
2017-12-11T20:32:21.778Z,1.90
2017-12-11T20:34:47.738Z,3.73
2017-12-11T20:37:13.646Z,1.90
2017-12-11T20:39:40.071Z,1.80
2017-12-11T20:42:06.028Z,1.80
2017-12-11T20:44:31.951Z,2.10
2017-12-11T20:46:58.572Z,2.10
2017-12-11T20:49:24.478Z,1.80
2017-12-11T20:51:51.392Z,1.83
2017-12-11T20:54:17.337Z,1.97
2017-12-11T20:56:43.273Z,1.83
2017-12-11T20:59:09.798Z,1.77
2017-12-11T21:01:35.834Z,1.90
2017-12-11T21:04:01.763Z,2.10
2017-12-11T21:06:27.767Z,1.83
2017-12-11T21:08:54.361Z,1.60
2017-12-11T21:11:20.286Z,1.90
2017-12-11T21:13:46.234Z,1.80
2017-12-11T21:16:12.199Z,1.90
2017-12-11T21:18:38.205Z,1.70
2017-12-11T21:21:04.130Z,2.07
2017-12-11T21:23:30.039Z,1.90
2017-12-11T21:25:56.780Z,2.20
2017-12-11T21:28:23.324Z,1.90
2017-12-11T21:30:49.334Z,1.70
2017-12-11T21:33:15.251Z,2.40
2017-12-11T21:35:41.220Z,2.03
2017-12-11T21:38:07.140Z,2.10
2017-12-11T21:40:34.774Z,1.80
2017-12-11T21:43:00.707Z,1.60
2017-12-11T21:45:26.647Z,1.90
2017-12-11T21:47:52.656Z,1.80
2017-12-11T21:50:18.567Z,1.60
2017-12-11T21:52:44.582Z,1.47
2017-12-11T21:55:11.336Z,1.70
2017-12-11T21:57:38.007Z,1.80
2017-12-11T22:00:03.962Z,1.30
2017-12-11T22:02:30.859Z,1.40
2017-12-11T22:04:57.825Z,1.53
2017-12-11T22:07:24.474Z,1.77
2017-12-11T22:09:50.372Z,1.70
2017-12-11T22:12:16.351Z,1.70
2017-12-11T22:14:43.048Z,1.50
2017-12-11T22:17:09.007Z,1.80
2017-12-11T22:19:36.203Z,1.60
2017-12-11T22:22:08.669Z,1.70
2017-12-11T22:24:34.631Z,1.60
2017-12-11T22:27:03.053Z,2.13
2017-12-11T22:29:28.966Z,1.60
2017-12-11T22:31:56.331Z,2.10
2017-12-11T22:34:23.129Z,1.50
2017-12-11T22:36:49.105Z,1.80
2017-12-11T22:39:15.042Z,1.40
2017-12-11T22:41:41.014Z,1.70
2017-12-11T22:44:07.672Z,1.70
2017-12-11T22:46:33.688Z,1.47
2017-12-11T22:48:59.630Z,1.70
2017-12-11T22:51:25.538Z,1.50
2017-12-11T22:53:51.499Z,1.80
2017-12-11T22:56:18.683Z,1.50
2017-12-11T22:58:44.584Z,1.60
2017-12-11T23:01:10.627Z,1.50
2017-12-11T23:03:36.737Z,1.60
2017-12-11T23:06:02.663Z,1.70
2017-12-11T23:08:28.576Z,1.40
2017-12-11T23:10:56.751Z,1.90
2017-12-11T23:13:23.437Z,1.60
2017-12-11T23:15:49.411Z,1.60
2017-12-11T23:18:15.326Z,1.90
2017-12-11T23:20:41.246Z,1.60
2017-12-11T23:23:07.160Z,1.50
2017-12-11T23:25:33.119Z,1.30
2017-12-11T23:27:59.026Z,1.70
2017-12-11T23:30:24.943Z,1.40
2017-12-11T23:32:50.846Z,1.67
2017-12-11T23:35:16.797Z,1.80
2017-12-11T23:37:42.725Z,1.70
2017-12-11T23:40:08.647Z,1.50
2017-12-11T23:42:34.761Z,1.87
2017-12-11T23:45:00.686Z,1.47
2017-12-11T23:47:27.345Z,1.67
2017-12-11T23:49:54.640Z,1.50
2017-12-11T23:52:20.709Z,1.57
2017-12-11T23:54:46.633Z,1.93
2017-12-11T23:57:13.179Z,1.70
2017-12-11T23:59:39.855Z,1.50
